sensor_id;sensor_type;location;lat;lon;timestamp;P1;durP1;ratioP1;P2;durP2;ratioP2
52742;SDS011;55583;53.012;6.556;2023-04-23T00:01:37;110.63;;;42.20;;
52742;SDS011;55583;53.012;6.556;2023-04-23T00:04:05;88.07;;;38.63;;
52742;SDS011;55583;53.012;6.556;2023-04-23T00:06:33;97.00;;;40.47;;
52742;SDS011;55583;53.012;6.556;2023-04-23T00:08:59;93.20;;;40.40;;
52742;SDS011;55583;53.012;6.556;2023-04-23T00:11:26;85.40;;;37.97;;
52742;SDS011;55583;53.012;6.556;2023-04-23T00:13:52;126.70;;;43.25;;
52742;SDS011;55583;53.012;6.556;2023-04-23T00:16:18;93.82;;;39.35;;
52742;SDS011;55583;53.012;6.556;2023-04-23T00:18:44;103.93;;;42.08;;
52742;SDS011;55583;53.012;6.556;2023-04-23T00:21:10;97.20;;;40.05;;
52742;SDS011;55583;53.012;6.556;2023-04-23T00:23:37;110.57;;;42.22;;
52742;SDS011;55583;53.012;6.556;2023-04-23T00:26:03;92.72;;;39.28;;
52742;SDS011;55583;53.012;6.556;2023-04-23T00:28:29;90.82;;;39.20;;
52742;SDS011;55583;53.012;6.556;2023-04-23T00:30:55;94.10;;;39.58;;
52742;SDS011;55583;53.012;6.556;2023-04-23T00:33:20;103.18;;;40.92;;
52742;SDS011;55583;53.012;6.556;2023-04-23T00:35:46;111.53;;;42.58;;
52742;SDS011;55583;53.012;6.556;2023-04-23T00:38:12;111.00;;;42.38;;
52742;SDS011;55583;53.012;6.556;2023-04-23T00:40:38;92.57;;;39.53;;
52742;SDS011;55583;53.012;6.556;2023-04-23T00:43:04;105.05;;;41.65;;
52742;SDS011;55583;53.012;6.556;2023-04-23T00:45:31;106.60;;;41.10;;
52742;SDS011;55583;53.012;6.556;2023-04-23T00:47:57;101.90;;;39.58;;
52742;SDS011;55583;53.012;6.556;2023-04-23T00:50:23;102.03;;;39.53;;
52742;SDS011;55583;53.012;6.556;2023-04-23T00:52:48;97.28;;;39.15;;
52742;SDS011;55583;53.012;6.556;2023-04-23T00:55:14;101.82;;;39.95;;
52742;SDS011;55583;53.012;6.556;2023-04-23T00:57:40;100.43;;;38.15;;
52742;SDS011;55583;53.012;6.556;2023-04-23T01:00:06;98.78;;;38.60;;
52742;SDS011;55583;53.012;6.556;2023-04-23T01:02:33;98.55;;;39.13;;
52742;SDS011;55583;53.012;6.556;2023-04-23T01:05:00;107.18;;;40.53;;
52742;SDS011;55583;53.012;6.556;2023-04-23T01:07:28;103.70;;;42.35;;
52742;SDS011;55583;53.012;6.556;2023-04-23T01:09:57;100.18;;;39.40;;
52742;SDS011;55583;53.012;6.556;2023-04-23T01:12:23;109.20;;;39.53;;
52742;SDS011;55583;53.012;6.556;2023-04-23T01:14:49;130.75;;;43.95;;
52742;SDS011;55583;53.012;6.556;2023-04-23T01:17:15;117.25;;;43.20;;
52742;SDS011;55583;53.012;6.556;2023-04-23T01:19:41;115.32;;;43.00;;
52742;SDS011;55583;53.012;6.556;2023-04-23T01:22:10;112.25;;;41.72;;
52742;SDS011;55583;53.012;6.556;2023-04-23T01:24:37;101.65;;;41.85;;
52742;SDS011;55583;53.012;6.556;2023-04-23T01:27:03;121.20;;;45.03;;
52742;SDS011;55583;53.012;6.556;2023-04-23T01:29:30;147.38;;;49.22;;
52742;SDS011;55583;53.012;6.556;2023-04-23T01:31:57;146.52;;;49.53;;
52742;SDS011;55583;53.012;6.556;2023-04-23T01:34:24;122.78;;;46.25;;
52742;SDS011;55583;53.012;6.556;2023-04-23T01:36:49;120.43;;;44.42;;
52742;SDS011;55583;53.012;6.556;2023-04-23T01:39:16;146.82;;;50.30;;
52742;SDS011;55583;53.012;6.556;2023-04-23T01:41:42;127.03;;;48.75;;
52742;SDS011;55583;53.012;6.556;2023-04-23T01:44:07;124.15;;;49.60;;
52742;SDS011;55583;53.012;6.556;2023-04-23T01:46:34;141.23;;;52.22;;
52742;SDS011;55583;53.012;6.556;2023-04-23T01:48:59;140.18;;;50.72;;
52742;SDS011;55583;53.012;6.556;2023-04-23T01:51:26;151.25;;;52.83;;
52742;SDS011;55583;53.012;6.556;2023-04-23T01:53:53;150.32;;;53.88;;
52742;SDS011;55583;53.012;6.556;2023-04-23T01:56:21;167.77;;;58.33;;
52742;SDS011;55583;53.012;6.556;2023-04-23T01:58:50;167.07;;;56.17;;
52742;SDS011;55583;53.012;6.556;2023-04-23T02:01:16;175.95;;;57.10;;
52742;SDS011;55583;53.012;6.556;2023-04-23T02:03:41;181.85;;;55.95;;
52742;SDS011;55583;53.012;6.556;2023-04-23T02:06:07;162.50;;;55.38;;
52742;SDS011;55583;53.012;6.556;2023-04-23T02:08:34;202.82;;;58.78;;
52742;SDS011;55583;53.012;6.556;2023-04-23T02:11:00;167.85;;;56.20;;
52742;SDS011;55583;53.012;6.556;2023-04-23T02:13:25;179.73;;;57.72;;
52742;SDS011;55583;53.012;6.556;2023-04-23T02:15:51;153.27;;;56.70;;
52742;SDS011;55583;53.012;6.556;2023-04-23T02:18:16;188.57;;;59.03;;
52742;SDS011;55583;53.012;6.556;2023-04-23T02:20:42;201.52;;;62.15;;
52742;SDS011;55583;53.012;6.556;2023-04-23T02:23:08;202.85;;;60.70;;
52742;SDS011;55583;53.012;6.556;2023-04-23T02:25:34;197.52;;;62.03;;
52742;SDS011;55583;53.012;6.556;2023-04-23T02:28:02;237.95;;;66.40;;
52742;SDS011;55583;53.012;6.556;2023-04-23T02:30:31;240.55;;;65.65;;
52742;SDS011;55583;53.012;6.556;2023-04-23T02:32:57;258.67;;;69.15;;
52742;SDS011;55583;53.012;6.556;2023-04-23T02:35:23;268.33;;;69.93;;
52742;SDS011;55583;53.012;6.556;2023-04-23T02:37:49;203.57;;;64.75;;
52742;SDS011;55583;53.012;6.556;2023-04-23T02:40:15;295.10;;;71.97;;
52742;SDS011;55583;53.012;6.556;2023-04-23T02:42:41;246.15;;;69.32;;
52742;SDS011;55583;53.012;6.556;2023-04-23T02:45:07;206.80;;;60.88;;
52742;SDS011;55583;53.012;6.556;2023-04-23T02:47:32;219.07;;;62.50;;
52742;SDS011;55583;53.012;6.556;2023-04-23T02:49:58;191.60;;;61.20;;
52742;SDS011;55583;53.012;6.556;2023-04-23T02:52:27;225.07;;;61.13;;
52742;SDS011;55583;53.012;6.556;2023-04-23T02:54:52;211.23;;;63.90;;
52742;SDS011;55583;53.012;6.556;2023-04-23T02:57:18;335.55;;;80.15;;
52742;SDS011;55583;53.012;6.556;2023-04-23T02:59:44;264.48;;;67.65;;
52742;SDS011;55583;53.012;6.556;2023-04-23T03:02:10;233.15;;;69.15;;
52742;SDS011;55583;53.012;6.556;2023-04-23T03:04:36;153.57;;;56.47;;
52742;SDS011;55583;53.012;6.556;2023-04-23T03:07:01;218.65;;;64.68;;
52742;SDS011;55583;53.012;6.556;2023-04-23T03:09:27;214.85;;;64.53;;
52742;SDS011;55583;53.012;6.556;2023-04-23T03:11:53;228.32;;;63.60;;
52742;SDS011;55583;53.012;6.556;2023-04-23T03:14:18;221.40;;;66.57;;
52742;SDS011;55583;53.012;6.556;2023-04-23T03:16:44;244.35;;;65.53;;
52742;SDS011;55583;53.012;6.556;2023-04-23T03:19:09;197.57;;;63.08;;
52742;SDS011;55583;53.012;6.556;2023-04-23T03:21:35;204.88;;;62.40;;
52742;SDS011;55583;53.012;6.556;2023-04-23T03:24:00;228.15;;;66.18;;
52742;SDS011;55583;53.012;6.556;2023-04-23T03:26:26;206.80;;;65.88;;
52742;SDS011;55583;53.012;6.556;2023-04-23T03:28:52;230.20;;;65.20;;
52742;SDS011;55583;53.012;6.556;2023-04-23T03:31:17;245.25;;;66.40;;
52742;SDS011;55583;53.012;6.556;2023-04-23T03:33:43;265.88;;;71.90;;
52742;SDS011;55583;53.012;6.556;2023-04-23T03:36:09;196.23;;;65.20;;
52742;SDS011;55583;53.012;6.556;2023-04-23T03:38:35;191.05;;;63.20;;
52742;SDS011;55583;53.012;6.556;2023-04-23T03:41:00;246.35;;;66.50;;
52742;SDS011;55583;53.012;6.556;2023-04-23T03:43:26;201.50;;;64.60;;
52742;SDS011;55583;53.012;6.556;2023-04-23T03:45:51;229.65;;;67.05;;
52742;SDS011;55583;53.012;6.556;2023-04-23T03:48:17;204.23;;;64.80;;
52742;SDS011;55583;53.012;6.556;2023-04-23T03:50:43;177.35;;;59.97;;
52742;SDS011;55583;53.012;6.556;2023-04-23T03:53:08;220.02;;;65.80;;
52742;SDS011;55583;53.012;6.556;2023-04-23T03:55:34;279.77;;;77.85;;
52742;SDS011;55583;53.012;6.556;2023-04-23T03:57:59;398.92;;;89.38;;
52742;SDS011;55583;53.012;6.556;2023-04-23T04:00:27;230.18;;;69.53;;
52742;SDS011;55583;53.012;6.556;2023-04-23T04:02:52;473.77;;;90.68;;
52742;SDS011;55583;53.012;6.556;2023-04-23T04:05:18;599.88;;;100.55;;
52742;SDS011;55583;53.012;6.556;2023-04-23T04:07:44;390.63;;;85.07;;
52742;SDS011;55583;53.012;6.556;2023-04-23T04:10:09;363.25;;;90.10;;
52742;SDS011;55583;53.012;6.556;2023-04-23T04:12:35;480.98;;;97.03;;
52742;SDS011;55583;53.012;6.556;2023-04-23T04:15:01;491.55;;;97.03;;
52742;SDS011;55583;53.012;6.556;2023-04-23T04:17:27;418.05;;;88.00;;
52742;SDS011;55583;53.012;6.556;2023-04-23T04:19:53;621.10;;;106.53;;
52742;SDS011;55583;53.012;6.556;2023-04-23T04:22:19;534.45;;;100.25;;
52742;SDS011;55583;53.012;6.556;2023-04-23T04:24:44;401.00;;;89.72;;
52742;SDS011;55583;53.012;6.556;2023-04-23T04:27:11;542.88;;;96.68;;
52742;SDS011;55583;53.012;6.556;2023-04-23T04:29:38;545.42;;;94.07;;
52742;SDS011;55583;53.012;6.556;2023-04-23T04:32:07;432.40;;;92.30;;
52742;SDS011;55583;53.012;6.556;2023-04-23T04:34:33;658.90;;;110.45;;
52742;SDS011;55583;53.012;6.556;2023-04-23T04:37:01;560.42;;;95.45;;
52742;SDS011;55583;53.012;6.556;2023-04-23T04:39:27;508.20;;;94.45;;
52742;SDS011;55583;53.012;6.556;2023-04-23T04:41:52;556.78;;;96.15;;
52742;SDS011;55583;53.012;6.556;2023-04-23T04:44:18;321.02;;;83.47;;
52742;SDS011;55583;53.012;6.556;2023-04-23T04:46:47;544.28;;;94.70;;
52742;SDS011;55583;53.012;6.556;2023-04-23T04:49:13;486.75;;;96.68;;
52742;SDS011;55583;53.012;6.556;2023-04-23T04:51:39;396.30;;;90.15;;
52742;SDS011;55583;53.012;6.556;2023-04-23T04:54:06;529.50;;;100.43;;
52742;SDS011;55583;53.012;6.556;2023-04-23T04:56:32;502.75;;;95.10;;
52742;SDS011;55583;53.012;6.556;2023-04-23T04:58:59;538.58;;;96.97;;
52742;SDS011;55583;53.012;6.556;2023-04-23T05:01:25;643.33;;;104.05;;
52742;SDS011;55583;53.012;6.556;2023-04-23T05:03:56;402.92;;;94.35;;
52742;SDS011;55583;53.012;6.556;2023-04-23T05:06:22;580.15;;;100.20;;
52742;SDS011;55583;53.012;6.556;2023-04-23T05:08:48;295.60;;;83.75;;
52742;SDS011;55583;53.012;6.556;2023-04-23T05:11:17;352.88;;;89.57;;
52742;SDS011;55583;53.012;6.556;2023-04-23T05:13:46;321.98;;;84.78;;
52742;SDS011;55583;53.012;6.556;2023-04-23T05:16:12;292.10;;;84.65;;
52742;SDS011;55583;53.012;6.556;2023-04-23T05:18:39;376.63;;;89.75;;
52742;SDS011;55583;53.012;6.556;2023-04-23T05:21:05;310.58;;;89.43;;
52742;SDS011;55583;53.012;6.556;2023-04-23T05:23:32;440.30;;;97.00;;
52742;SDS011;55583;53.012;6.556;2023-04-23T05:25:58;300.90;;;88.35;;
52742;SDS011;55583;53.012;6.556;2023-04-23T05:28:24;313.35;;;90.95;;
52742;SDS011;55583;53.012;6.556;2023-04-23T05:30:50;344.52;;;92.53;;
52742;SDS011;55583;53.012;6.556;2023-04-23T05:33:16;337.15;;;89.65;;
52742;SDS011;55583;53.012;6.556;2023-04-23T05:35:42;296.90;;;87.13;;
52742;SDS011;55583;53.012;6.556;2023-04-23T05:38:08;350.90;;;92.65;;
52742;SDS011;55583;53.012;6.556;2023-04-23T05:40:34;306.95;;;87.65;;
52742;SDS011;55583;53.012;6.556;2023-04-23T05:43:00;265.17;;;84.20;;
52742;SDS011;55583;53.012;6.556;2023-04-23T05:45:26;307.35;;;88.88;;
52742;SDS011;55583;53.012;6.556;2023-04-23T05:47:51;344.48;;;92.68;;
52742;SDS011;55583;53.012;6.556;2023-04-23T05:50:17;271.50;;;81.05;;
52742;SDS011;55583;53.012;6.556;2023-04-23T05:52:46;274.00;;;84.05;;
52742;SDS011;55583;53.012;6.556;2023-04-23T05:55:11;237.15;;;80.13;;
52742;SDS011;55583;53.012;6.556;2023-04-23T05:57:39;311.10;;;84.50;;
52742;SDS011;55583;53.012;6.556;2023-04-23T06:00:06;259.05;;;81.00;;
52742;SDS011;55583;53.012;6.556;2023-04-23T06:02:36;266.33;;;84.22;;
52742;SDS011;55583;53.012;6.556;2023-04-23T06:05:02;214.00;;;74.60;;
52742;SDS011;55583;53.012;6.556;2023-04-23T06:07:28;215.18;;;76.05;;
52742;SDS011;55583;53.012;6.556;2023-04-23T06:09:54;195.55;;;72.28;;
52742;SDS011;55583;53.012;6.556;2023-04-23T06:12:20;230.75;;;79.22;;
52742;SDS011;55583;53.012;6.556;2023-04-23T06:14:45;205.52;;;78.35;;
52742;SDS011;55583;53.012;6.556;2023-04-23T06:17:11;172.18;;;70.53;;
52742;SDS011;55583;53.012;6.556;2023-04-23T06:19:37;176.73;;;70.28;;
52742;SDS011;55583;53.012;6.556;2023-04-23T06:22:03;164.95;;;67.72;;
52742;SDS011;55583;53.012;6.556;2023-04-23T06:24:29;159.85;;;66.88;;
52742;SDS011;55583;53.012;6.556;2023-04-23T06:26:55;124.70;;;59.65;;
52742;SDS011;55583;53.012;6.556;2023-04-23T06:29:21;132.27;;;62.78;;
52742;SDS011;55583;53.012;6.556;2023-04-23T06:31:47;120.18;;;58.22;;
52742;SDS011;55583;53.012;6.556;2023-04-23T06:34:13;106.07;;;54.08;;
52742;SDS011;55583;53.012;6.556;2023-04-23T06:36:38;109.88;;;55.35;;
52742;SDS011;55583;53.012;6.556;2023-04-23T06:39:04;86.53;;;51.05;;
52742;SDS011;55583;53.012;6.556;2023-04-23T06:41:30;82.65;;;47.67;;
52742;SDS011;55583;53.012;6.556;2023-04-23T06:43:56;78.88;;;47.00;;
52742;SDS011;55583;53.012;6.556;2023-04-23T06:46:21;78.35;;;46.90;;
52742;SDS011;55583;53.012;6.556;2023-04-23T06:48:47;74.63;;;45.00;;
52742;SDS011;55583;53.012;6.556;2023-04-23T06:51:13;73.85;;;43.38;;
52742;SDS011;55583;53.012;6.556;2023-04-23T06:53:39;67.00;;;40.22;;
52742;SDS011;55583;53.012;6.556;2023-04-23T06:56:04;69.32;;;41.47;;
52742;SDS011;55583;53.012;6.556;2023-04-23T06:58:31;64.13;;;40.67;;
52742;SDS011;55583;53.012;6.556;2023-04-23T07:00:57;68.35;;;40.15;;
52742;SDS011;55583;53.012;6.556;2023-04-23T07:03:29;66.37;;;41.07;;
52742;SDS011;55583;53.012;6.556;2023-04-23T07:05:56;69.65;;;42.65;;
52742;SDS011;55583;53.012;6.556;2023-04-23T07:08:22;67.20;;;41.17;;
52742;SDS011;55583;53.012;6.556;2023-04-23T07:10:47;62.30;;;40.72;;
52742;SDS011;55583;53.012;6.556;2023-04-23T07:13:13;64.22;;;41.00;;
52742;SDS011;55583;53.012;6.556;2023-04-23T07:15:40;64.78;;;40.08;;
52742;SDS011;55583;53.012;6.556;2023-04-23T07:18:06;61.55;;;37.78;;
52742;SDS011;55583;53.012;6.556;2023-04-23T07:20:32;65.22;;;42.53;;
52742;SDS011;55583;53.012;6.556;2023-04-23T07:22:58;58.88;;;37.20;;
52742;SDS011;55583;53.012;6.556;2023-04-23T07:25:24;62.78;;;37.28;;
52742;SDS011;55583;53.012;6.556;2023-04-23T07:27:51;65.05;;;40.05;;
52742;SDS011;55583;53.012;6.556;2023-04-23T07:30:18;63.50;;;38.20;;
52742;SDS011;55583;53.012;6.556;2023-04-23T07:32:44;59.88;;;37.22;;
52742;SDS011;55583;53.012;6.556;2023-04-23T07:35:10;58.85;;;37.38;;
52742;SDS011;55583;53.012;6.556;2023-04-23T07:37:36;58.22;;;37.22;;
52742;SDS011;55583;53.012;6.556;2023-04-23T07:40:02;55.88;;;36.00;;
52742;SDS011;55583;53.012;6.556;2023-04-23T07:42:29;50.63;;;34.60;;
52742;SDS011;55583;53.012;6.556;2023-04-23T07:44:56;52.35;;;35.35;;
52742;SDS011;55583;53.012;6.556;2023-04-23T07:47:22;53.80;;;35.20;;
52742;SDS011;55583;53.012;6.556;2023-04-23T07:49:47;51.17;;;34.90;;
52742;SDS011;55583;53.012;6.556;2023-04-23T07:52:13;46.90;;;31.67;;
52742;SDS011;55583;53.012;6.556;2023-04-23T07:54:40;46.95;;;32.28;;
52742;SDS011;55583;53.012;6.556;2023-04-23T07:57:05;50.67;;;32.53;;
52742;SDS011;55583;53.012;6.556;2023-04-23T07:59:31;50.20;;;33.67;;
52742;SDS011;55583;53.012;6.556;2023-04-23T08:01:57;46.83;;;31.23;;
52742;SDS011;55583;53.012;6.556;2023-04-23T08:04:22;47.75;;;32.17;;
52742;SDS011;55583;53.012;6.556;2023-04-23T08:06:48;46.95;;;33.05;;
52742;SDS011;55583;53.012;6.556;2023-04-23T08:09:14;43.30;;;29.58;;
52742;SDS011;55583;53.012;6.556;2023-04-23T08:11:39;42.60;;;28.92;;
52742;SDS011;55583;53.012;6.556;2023-04-23T08:14:05;43.40;;;28.65;;
52742;SDS011;55583;53.012;6.556;2023-04-23T08:16:31;46.22;;;29.75;;
52742;SDS011;55583;53.012;6.556;2023-04-23T08:18:57;41.78;;;28.58;;
52742;SDS011;55583;53.012;6.556;2023-04-23T08:21:23;37.00;;;28.02;;
52742;SDS011;55583;53.012;6.556;2023-04-23T08:23:50;41.55;;;27.83;;
52742;SDS011;55583;53.012;6.556;2023-04-23T08:26:16;39.78;;;26.42;;
52742;SDS011;55583;53.012;6.556;2023-04-23T08:28:42;40.70;;;28.75;;
52742;SDS011;55583;53.012;6.556;2023-04-23T08:31:09;37.50;;;26.92;;
52742;SDS011;55583;53.012;6.556;2023-04-23T08:33:34;35.15;;;26.20;;
52742;SDS011;55583;53.012;6.556;2023-04-23T08:36:00;34.38;;;24.88;;
52742;SDS011;55583;53.012;6.556;2023-04-23T08:38:26;37.45;;;26.80;;
52742;SDS011;55583;53.012;6.556;2023-04-23T08:40:53;34.00;;;24.02;;
52742;SDS011;55583;53.012;6.556;2023-04-23T08:43:21;35.95;;;23.92;;
52742;SDS011;55583;53.012;6.556;2023-04-23T08:45:54;31.38;;;22.73;;
52742;SDS011;55583;53.012;6.556;2023-04-23T08:48:24;30.67;;;21.85;;
52742;SDS011;55583;53.012;6.556;2023-04-23T08:50:50;31.02;;;22.40;;
52742;SDS011;55583;53.012;6.556;2023-04-23T08:53:17;30.33;;;22.35;;
52742;SDS011;55583;53.012;6.556;2023-04-23T08:55:43;31.73;;;22.13;;
52742;SDS011;55583;53.012;6.556;2023-04-23T08:58:09;29.35;;;20.63;;
52742;SDS011;55583;53.012;6.556;2023-04-23T09:00:35;30.63;;;20.83;;
52742;SDS011;55583;53.012;6.556;2023-04-23T09:03:02;28.77;;;20.05;;
52742;SDS011;55583;53.012;6.556;2023-04-23T09:05:28;26.05;;;19.15;;
52742;SDS011;55583;53.012;6.556;2023-04-23T09:07:55;27.90;;;20.42;;
52742;SDS011;55583;53.012;6.556;2023-04-23T09:10:23;24.35;;;17.60;;
52742;SDS011;55583;53.012;6.556;2023-04-23T09:12:49;23.98;;;16.83;;
52742;SDS011;55583;53.012;6.556;2023-04-23T09:15:15;21.75;;;14.90;;
52742;SDS011;55583;53.012;6.556;2023-04-23T09:17:41;19.90;;;14.80;;
52742;SDS011;55583;53.012;6.556;2023-04-23T09:20:09;18.27;;;14.25;;
52742;SDS011;55583;53.012;6.556;2023-04-23T09:22:48;17.67;;;12.32;;
52742;SDS011;55583;53.012;6.556;2023-04-23T09:25:19;16.15;;;11.90;;
52742;SDS011;55583;53.012;6.556;2023-04-23T09:27:46;17.02;;;11.93;;
52742;SDS011;55583;53.012;6.556;2023-04-23T09:30:14;16.52;;;12.63;;
52742;SDS011;55583;53.012;6.556;2023-04-23T09:32:40;15.55;;;10.70;;
52742;SDS011;55583;53.012;6.556;2023-04-23T09:35:08;14.00;;;9.98;;
52742;SDS011;55583;53.012;6.556;2023-04-23T09:37:35;12.73;;;9.00;;
52742;SDS011;55583;53.012;6.556;2023-04-23T09:40:04;18.58;;;10.85;;
52742;SDS011;55583;53.012;6.556;2023-04-23T09:42:34;17.25;;;9.55;;
52742;SDS011;55583;53.012;6.556;2023-04-23T09:45:04;14.38;;;9.13;;
52742;SDS011;55583;53.012;6.556;2023-04-23T09:47:32;15.65;;;9.10;;
52742;SDS011;55583;53.012;6.556;2023-04-23T09:49:59;12.15;;;7.72;;
52742;SDS011;55583;53.012;6.556;2023-04-23T09:52:25;14.55;;;8.65;;
52742;SDS011;55583;53.012;6.556;2023-04-23T09:54:52;12.88;;;7.93;;
52742;SDS011;55583;53.012;6.556;2023-04-23T09:57:23;14.88;;;8.27;;
52742;SDS011;55583;53.012;6.556;2023-04-23T09:59:51;16.75;;;8.43;;
52742;SDS011;55583;53.012;6.556;2023-04-23T10:02:16;10.50;;;7.43;;
52742;SDS011;55583;53.012;6.556;2023-04-23T10:04:43;17.05;;;7.78;;
52742;SDS011;55583;53.012;6.556;2023-04-23T10:07:09;13.48;;;6.85;;
52742;SDS011;55583;53.012;6.556;2023-04-23T10:09:38;17.75;;;7.47;;
52742;SDS011;55583;53.012;6.556;2023-04-23T10:12:05;12.43;;;7.10;;
52742;SDS011;55583;53.012;6.556;2023-04-23T10:14:32;15.00;;;7.35;;
52742;SDS011;55583;53.012;6.556;2023-04-23T10:19:25;12.85;;;5.70;;
52742;SDS011;55583;53.012;6.556;2023-04-23T10:21:54;12.40;;;5.80;;
52742;SDS011;55583;53.012;6.556;2023-04-23T10:24:23;11.02;;;4.57;;
52742;SDS011;55583;53.012;6.556;2023-04-23T10:26:50;13.68;;;6.03;;
52742;SDS011;55583;53.012;6.556;2023-04-23T10:29:18;11.60;;;4.93;;
52742;SDS011;55583;53.012;6.556;2023-04-23T10:31:50;9.60;;;4.90;;
52742;SDS011;55583;53.012;6.556;2023-04-23T10:34:18;9.93;;;5.70;;
52742;SDS011;55583;53.012;6.556;2023-04-23T10:36:45;11.57;;;5.93;;
52742;SDS011;55583;53.012;6.556;2023-04-23T10:39:11;11.45;;;5.82;;
52742;SDS011;55583;53.012;6.556;2023-04-23T10:41:39;10.32;;;5.18;;
52742;SDS011;55583;53.012;6.556;2023-04-23T10:44:10;8.98;;;4.85;;
52742;SDS011;55583;53.012;6.556;2023-04-23T10:46:36;8.93;;;4.28;;
52742;SDS011;55583;53.012;6.556;2023-04-23T10:49:14;13.32;;;4.93;;
52742;SDS011;55583;53.012;6.556;2023-04-23T10:51:41;9.50;;;4.78;;
52742;SDS011;55583;53.012;6.556;2023-04-23T10:54:09;8.45;;;3.70;;
52742;SDS011;55583;53.012;6.556;2023-04-23T10:56:41;7.63;;;4.20;;
52742;SDS011;55583;53.012;6.556;2023-04-23T10:59:20;8.10;;;3.72;;
52742;SDS011;55583;53.012;6.556;2023-04-23T11:01:46;7.28;;;4.15;;
52742;SDS011;55583;53.012;6.556;2023-04-23T11:04:24;6.97;;;3.38;;
52742;SDS011;55583;53.012;6.556;2023-04-23T11:06:53;9.80;;;3.55;;
52742;SDS011;55583;53.012;6.556;2023-04-23T11:14:35;6.88;;;3.25;;
52742;SDS011;55583;53.012;6.556;2023-04-23T11:20:09;5.13;;;2.75;;
52742;SDS011;55583;53.012;6.556;2023-04-23T11:22:42;7.35;;;2.83;;
52742;SDS011;55583;53.012;6.556;2023-04-23T11:25:13;5.07;;;2.70;;
52742;SDS011;55583;53.012;6.556;2023-04-23T11:27:45;7.55;;;2.42;;
52742;SDS011;55583;53.012;6.556;2023-04-23T11:30:12;9.05;;;3.72;;
52742;SDS011;55583;53.012;6.556;2023-04-23T11:32:40;7.75;;;2.97;;
52742;SDS011;55583;53.012;6.556;2023-04-23T11:35:09;8.25;;;3.00;;
52742;SDS011;55583;53.012;6.556;2023-04-23T11:37:37;5.78;;;2.95;;
52742;SDS011;55583;53.012;6.556;2023-04-23T11:40:08;6.00;;;2.60;;
52742;SDS011;55583;53.012;6.556;2023-04-23T11:42:41;7.57;;;2.70;;
52742;SDS011;55583;53.012;6.556;2023-04-23T11:47:56;4.47;;;2.33;;
52742;SDS011;55583;53.012;6.556;2023-04-23T11:52:50;5.68;;;2.38;;
52742;SDS011;55583;53.012;6.556;2023-04-23T11:55:17;5.85;;;2.08;;
52742;SDS011;55583;53.012;6.556;2023-04-23T11:57:44;3.58;;;1.80;;
52742;SDS011;55583;53.012;6.556;2023-04-23T12:00:19;5.32;;;2.00;;
52742;SDS011;55583;53.012;6.556;2023-04-23T12:05:26;7.45;;;2.53;;
52742;SDS011;55583;53.012;6.556;2023-04-23T12:10:49;6.13;;;2.35;;
52742;SDS011;55583;53.012;6.556;2023-04-23T12:13:26;5.18;;;2.08;;
52742;SDS011;55583;53.012;6.556;2023-04-23T12:15:58;4.40;;;2.40;;
52742;SDS011;55583;53.012;6.556;2023-04-23T12:18:26;4.18;;;1.95;;
52742;SDS011;55583;53.012;6.556;2023-04-23T12:20:56;5.95;;;2.15;;
52742;SDS011;55583;53.012;6.556;2023-04-23T12:23:32;8.20;;;2.35;;
52742;SDS011;55583;53.012;6.556;2023-04-23T12:26:00;6.88;;;1.85;;
52742;SDS011;55583;53.012;6.556;2023-04-23T12:28:27;5.72;;;1.90;;
52742;SDS011;55583;53.012;6.556;2023-04-23T12:30:57;5.13;;;1.88;;
52742;SDS011;55583;53.012;6.556;2023-04-23T12:33:26;4.35;;;2.22;;
52742;SDS011;55583;53.012;6.556;2023-04-23T12:35:54;5.95;;;2.47;;
52742;SDS011;55583;53.012;6.556;2023-04-23T12:40:51;4.80;;;2.20;;
52742;SDS011;55583;53.012;6.556;2023-04-23T12:43:18;6.35;;;2.28;;
52742;SDS011;55583;53.012;6.556;2023-04-23T12:45:44;5.65;;;2.42;;
52742;SDS011;55583;53.012;6.556;2023-04-23T12:48:10;5.55;;;2.20;;
52742;SDS011;55583;53.012;6.556;2023-04-23T12:50:36;6.80;;;1.88;;
52742;SDS011;55583;53.012;6.556;2023-04-23T12:53:02;4.97;;;2.17;;
52742;SDS011;55583;53.012;6.556;2023-04-23T12:55:28;8.52;;;2.40;;
52742;SDS011;55583;53.012;6.556;2023-04-23T12:57:54;4.35;;;1.80;;
52742;SDS011;55583;53.012;6.556;2023-04-23T13:00:20;7.97;;;2.35;;
52742;SDS011;55583;53.012;6.556;2023-04-23T13:02:46;8.57;;;2.58;;
52742;SDS011;55583;53.012;6.556;2023-04-23T13:05:12;7.53;;;2.38;;
52742;SDS011;55583;53.012;6.556;2023-04-23T13:07:37;8.00;;;2.15;;
52742;SDS011;55583;53.012;6.556;2023-04-23T13:10:03;6.28;;;2.03;;
52742;SDS011;55583;53.012;6.556;2023-04-23T13:12:29;11.43;;;2.67;;
52742;SDS011;55583;53.012;6.556;2023-04-23T13:14:55;8.00;;;2.08;;
52742;SDS011;55583;53.012;6.556;2023-04-23T13:17:22;6.85;;;2.00;;
52742;SDS011;55583;53.012;6.556;2023-04-23T13:19:50;7.53;;;2.30;;
52742;SDS011;55583;53.012;6.556;2023-04-23T13:22:16;10.93;;;2.85;;
52742;SDS011;55583;53.012;6.556;2023-04-23T13:24:42;8.32;;;2.45;;
52742;SDS011;55583;53.012;6.556;2023-04-23T13:27:07;10.68;;;2.83;;
52742;SDS011;55583;53.012;6.556;2023-04-23T13:29:35;8.82;;;2.80;;
52742;SDS011;55583;53.012;6.556;2023-04-23T13:32:00;10.05;;;2.88;;
52742;SDS011;55583;53.012;6.556;2023-04-23T13:34:26;6.88;;;2.38;;
52742;SDS011;55583;53.012;6.556;2023-04-23T13:36:52;6.43;;;2.35;;
52742;SDS011;55583;53.012;6.556;2023-04-23T13:39:17;11.25;;;2.47;;
52742;SDS011;55583;53.012;6.556;2023-04-23T13:41:44;7.07;;;2.45;;
52742;SDS011;55583;53.012;6.556;2023-04-23T13:44:10;10.20;;;2.50;;
52742;SDS011;55583;53.012;6.556;2023-04-23T13:46:37;7.82;;;2.30;;
52742;SDS011;55583;53.012;6.556;2023-04-23T13:49:04;7.82;;;2.25;;
52742;SDS011;55583;53.012;6.556;2023-04-23T13:51:30;3.47;;;1.73;;
52742;SDS011;55583;53.012;6.556;2023-04-23T13:53:55;7.72;;;2.28;;
52742;SDS011;55583;53.012;6.556;2023-04-23T13:56:22;5.43;;;1.85;;
52742;SDS011;55583;53.012;6.556;2023-04-23T13:58:48;5.97;;;1.90;;
52742;SDS011;55583;53.012;6.556;2023-04-23T14:01:16;4.70;;;1.83;;
52742;SDS011;55583;53.012;6.556;2023-04-23T14:03:42;8.00;;;2.33;;
52742;SDS011;55583;53.012;6.556;2023-04-23T14:06:08;6.55;;;2.17;;
52742;SDS011;55583;53.012;6.556;2023-04-23T14:08:34;9.23;;;2.25;;
52742;SDS011;55583;53.012;6.556;2023-04-23T14:11:01;5.00;;;1.52;;
52742;SDS011;55583;53.012;6.556;2023-04-23T14:13:28;4.90;;;1.38;;
52742;SDS011;55583;53.012;6.556;2023-04-23T14:15:54;8.48;;;2.15;;
52742;SDS011;55583;53.012;6.556;2023-04-23T14:18:20;9.50;;;1.80;;
52742;SDS011;55583;53.012;6.556;2023-04-23T14:20:46;5.40;;;1.58;;
52742;SDS011;55583;53.012;6.556;2023-04-23T14:26:26;8.68;;;2.05;;
52742;SDS011;55583;53.012;6.556;2023-04-23T14:28:56;5.75;;;1.85;;
52742;SDS011;55583;53.012;6.556;2023-04-23T14:33:54;5.15;;;1.80;;
52742;SDS011;55583;53.012;6.556;2023-04-23T14:36:23;8.10;;;2.47;;
52742;SDS011;55583;53.012;6.556;2023-04-23T14:38:48;7.38;;;1.88;;
52742;SDS011;55583;53.012;6.556;2023-04-23T14:41:14;5.82;;;2.00;;
52742;SDS011;55583;53.012;6.556;2023-04-23T14:43:40;7.70;;;1.98;;
52742;SDS011;55583;53.012;6.556;2023-04-23T14:46:05;9.43;;;1.83;;
52742;SDS011;55583;53.012;6.556;2023-04-23T14:48:31;7.88;;;2.08;;
52742;SDS011;55583;53.012;6.556;2023-04-23T14:50:56;6.70;;;1.83;;